sensor_id;sensor_type;location;lat;lon;timestamp;P1;durP1;ratioP1;P2;durP2;ratioP2
11743;SDS011;5929;51.906;7.674;2024-01-30T00:01:18;20.25;;;12.20;;
11743;SDS011;5929;51.906;7.674;2024-01-30T00:03:45;21.52;;;11.93;;
11743;SDS011;5929;51.906;7.674;2024-01-30T00:06:12;18.90;;;12.18;;
11743;SDS011;5929;51.906;7.674;2024-01-30T00:08:40;20.05;;;12.50;;
11743;SDS011;5929;51.906;7.674;2024-01-30T00:11:07;18.63;;;11.98;;
11743;SDS011;5929;51.906;7.674;2024-01-30T00:13:34;20.90;;;11.52;;
11743;SDS011;5929;51.906;7.674;2024-01-30T00:16:00;19.88;;;12.40;;
11743;SDS011;5929;51.906;7.674;2024-01-30T00:18:27;17.65;;;12.02;;
11743;SDS011;5929;51.906;7.674;2024-01-30T00:20:54;19.30;;;12.70;;
11743;SDS011;5929;51.906;7.674;2024-01-30T00:23:21;18.88;;;12.93;;
11743;SDS011;5929;51.906;7.674;2024-01-30T00:25:49;20.13;;;12.48;;
11743;SDS011;5929;51.906;7.674;2024-01-30T00:28:16;19.58;;;12.15;;
11743;SDS011;5929;51.906;7.674;2024-01-30T00:30:43;19.60;;;12.68;;
11743;SDS011;5929;51.906;7.674;2024-01-30T00:33:10;20.77;;;13.02;;
11743;SDS011;5929;51.906;7.674;2024-01-30T00:35:37;22.42;;;12.95;;
11743;SDS011;5929;51.906;7.674;2024-01-30T00:38:03;21.25;;;12.30;;
11743;SDS011;5929;51.906;7.674;2024-01-30T00:40:32;19.13;;;12.50;;
11743;SDS011;5929;51.906;7.674;2024-01-30T00:43:01;19.50;;;12.60;;
11743;SDS011;5929;51.906;7.674;2024-01-30T00:45:27;19.60;;;13.32;;
11743;SDS011;5929;51.906;7.674;2024-01-30T00:47:56;19.65;;;12.77;;
11743;SDS011;5929;51.906;7.674;2024-01-30T00:50:23;18.05;;;12.73;;
11743;SDS011;5929;51.906;7.674;2024-01-30T00:52:50;22.00;;;12.30;;
11743;SDS011;5929;51.906;7.674;2024-01-30T00:55:19;19.33;;;12.50;;
11743;SDS011;5929;51.906;7.674;2024-01-30T00:57:46;19.67;;;12.75;;
11743;SDS011;5929;51.906;7.674;2024-01-30T01:00:14;21.92;;;12.25;;
11743;SDS011;5929;51.906;7.674;2024-01-30T01:02:44;20.95;;;12.70;;
11743;SDS011;5929;51.906;7.674;2024-01-30T01:05:11;19.08;;;12.48;;
11743;SDS011;5929;51.906;7.674;2024-01-30T01:07:37;20.83;;;13.15;;
11743;SDS011;5929;51.906;7.674;2024-01-30T01:10:05;23.95;;;12.88;;
11743;SDS011;5929;51.906;7.674;2024-01-30T01:12:33;19.75;;;11.85;;
11743;SDS011;5929;51.906;7.674;2024-01-30T01:15:00;19.10;;;12.15;;
11743;SDS011;5929;51.906;7.674;2024-01-30T01:17:28;21.25;;;12.32;;
11743;SDS011;5929;51.906;7.674;2024-01-30T01:19:55;20.42;;;13.18;;
11743;SDS011;5929;51.906;7.674;2024-01-30T01:22:22;18.42;;;12.10;;
11743;SDS011;5929;51.906;7.674;2024-01-30T01:24:49;21.00;;;12.52;;
11743;SDS011;5929;51.906;7.674;2024-01-30T01:27:16;19.90;;;12.27;;
11743;SDS011;5929;51.906;7.674;2024-01-30T01:29:43;18.83;;;12.93;;
11743;SDS011;5929;51.906;7.674;2024-01-30T01:32:11;21.85;;;13.32;;
11743;SDS011;5929;51.906;7.674;2024-01-30T01:34:39;19.77;;;13.07;;
11743;SDS011;5929;51.906;7.674;2024-01-30T01:37:05;23.50;;;13.10;;
11743;SDS011;5929;51.906;7.674;2024-01-30T01:39:32;19.88;;;11.77;;
11743;SDS011;5929;51.906;7.674;2024-01-30T01:41:59;21.00;;;12.95;;
11743;SDS011;5929;51.906;7.674;2024-01-30T01:44:26;19.15;;;13.02;;
11743;SDS011;5929;51.906;7.674;2024-01-30T01:46:54;19.95;;;12.63;;
11743;SDS011;5929;51.906;7.674;2024-01-30T01:49:22;23.23;;;13.23;;
11743;SDS011;5929;51.906;7.674;2024-01-30T01:51:51;20.17;;;12.73;;
11743;SDS011;5929;51.906;7.674;2024-01-30T01:54:21;19.25;;;11.77;;
11743;SDS011;5929;51.906;7.674;2024-01-30T01:56:50;23.80;;;13.75;;
11743;SDS011;5929;51.906;7.674;2024-01-30T01:59:18;18.48;;;11.93;;
11743;SDS011;5929;51.906;7.674;2024-01-30T02:01:46;20.08;;;11.45;;
11743;SDS011;5929;51.906;7.674;2024-01-30T02:04:14;20.60;;;12.98;;
11743;SDS011;5929;51.906;7.674;2024-01-30T02:06:42;17.50;;;11.40;;
11743;SDS011;5929;51.906;7.674;2024-01-30T02:09:11;24.55;;;12.60;;
11743;SDS011;5929;51.906;7.674;2024-01-30T02:11:38;20.23;;;12.70;;
11743;SDS011;5929;51.906;7.674;2024-01-30T02:14:06;19.27;;;12.38;;
11743;SDS011;5929;51.906;7.674;2024-01-30T02:16:32;18.30;;;12.05;;
11743;SDS011;5929;51.906;7.674;2024-01-30T02:18:59;20.30;;;11.60;;
11743;SDS011;5929;51.906;7.674;2024-01-30T02:21:27;17.13;;;10.98;;
11743;SDS011;5929;51.906;7.674;2024-01-30T02:23:54;22.13;;;12.48;;
11743;SDS011;5929;51.906;7.674;2024-01-30T02:26:23;19.00;;;11.98;;
11743;SDS011;5929;51.906;7.674;2024-01-30T02:28:50;22.15;;;12.70;;
11743;SDS011;5929;51.906;7.674;2024-01-30T02:31:16;19.95;;;12.60;;
11743;SDS011;5929;51.906;7.674;2024-01-30T02:33:43;21.40;;;12.82;;
11743;SDS011;5929;51.906;7.674;2024-01-30T02:36:10;20.35;;;13.07;;
11743;SDS011;5929;51.906;7.674;2024-01-30T02:38:41;21.50;;;12.93;;
11743;SDS011;5929;51.906;7.674;2024-01-30T02:41:08;19.45;;;11.90;;
11743;SDS011;5929;51.906;7.674;2024-01-30T02:43:34;21.88;;;13.30;;
11743;SDS011;5929;51.906;7.674;2024-01-30T02:46:01;22.45;;;13.10;;
11743;SDS011;5929;51.906;7.674;2024-01-30T02:48:28;21.52;;;12.70;;
11743;SDS011;5929;51.906;7.674;2024-01-30T02:50:55;17.73;;;11.88;;
11743;SDS011;5929;51.906;7.674;2024-01-30T02:53:23;16.80;;;11.52;;
11743;SDS011;5929;51.906;7.674;2024-01-30T02:55:54;20.45;;;11.75;;
11743;SDS011;5929;51.906;7.674;2024-01-30T02:58:20;20.50;;;11.65;;
11743;SDS011;5929;51.906;7.674;2024-01-30T03:00:47;23.63;;;12.07;;
11743;SDS011;5929;51.906;7.674;2024-01-30T03:03:14;18.73;;;12.45;;
11743;SDS011;5929;51.906;7.674;2024-01-30T03:05:41;20.27;;;12.85;;
11743;SDS011;5929;51.906;7.674;2024-01-30T03:08:08;21.63;;;13.27;;
11743;SDS011;5929;51.906;7.674;2024-01-30T03:10:35;19.85;;;12.95;;
11743;SDS011;5929;51.906;7.674;2024-01-30T03:13:03;17.85;;;11.90;;
11743;SDS011;5929;51.906;7.674;2024-01-30T03:15:30;19.83;;;12.25;;
11743;SDS011;5929;51.906;7.674;2024-01-30T03:17:57;18.52;;;11.65;;
11743;SDS011;5929;51.906;7.674;2024-01-30T03:20:24;22.42;;;11.85;;
11743;SDS011;5929;51.906;7.674;2024-01-30T03:22:51;25.02;;;12.75;;
11743;SDS011;5929;51.906;7.674;2024-01-30T03:25:17;20.40;;;12.98;;
11743;SDS011;5929;51.906;7.674;2024-01-30T03:27:44;20.48;;;12.45;;
11743;SDS011;5929;51.906;7.674;2024-01-30T03:30:13;23.25;;;12.65;;
11743;SDS011;5929;51.906;7.674;2024-01-30T03:32:40;23.88;;;13.18;;
11743;SDS011;5929;51.906;7.674;2024-01-30T03:35:07;19.85;;;12.18;;
11743;SDS011;5929;51.906;7.674;2024-01-30T03:37:34;20.27;;;11.48;;
11743;SDS011;5929;51.906;7.674;2024-01-30T03:40:01;22.92;;;12.32;;
11743;SDS011;5929;51.906;7.674;2024-01-30T03:42:28;22.65;;;12.55;;
11743;SDS011;5929;51.906;7.674;2024-01-30T03:44:56;21.67;;;13.02;;
11743;SDS011;5929;51.906;7.674;2024-01-30T03:47:24;20.23;;;12.93;;
11743;SDS011;5929;51.906;7.674;2024-01-30T03:49:51;21.70;;;12.18;;
11743;SDS011;5929;51.906;7.674;2024-01-30T03:52:18;22.23;;;12.63;;
11743;SDS011;5929;51.906;7.674;2024-01-30T03:54:44;20.77;;;13.10;;
11743;SDS011;5929;51.906;7.674;2024-01-30T03:57:11;19.30;;;11.73;;
11743;SDS011;5929;51.906;7.674;2024-01-30T03:59:41;20.15;;;12.73;;
11743;SDS011;5929;51.906;7.674;2024-01-30T04:02:08;20.67;;;12.68;;
11743;SDS011;5929;51.906;7.674;2024-01-30T04:04:37;18.95;;;12.23;;
11743;SDS011;5929;51.906;7.674;2024-01-30T04:07:04;23.25;;;12.73;;
11743;SDS011;5929;51.906;7.674;2024-01-30T04:09:31;18.77;;;12.27;;
11743;SDS011;5929;51.906;7.674;2024-01-30T04:11:58;19.20;;;11.57;;
11743;SDS011;5929;51.906;7.674;2024-01-30T04:14:25;17.92;;;12.10;;
11743;SDS011;5929;51.906;7.674;2024-01-30T04:16:51;19.95;;;12.40;;
11743;SDS011;5929;51.906;7.674;2024-01-30T04:19:18;21.30;;;12.50;;
11743;SDS011;5929;51.906;7.674;2024-01-30T04:21:46;20.45;;;12.75;;
11743;SDS011;5929;51.906;7.674;2024-01-30T04:24:13;23.25;;;13.05;;
11743;SDS011;5929;51.906;7.674;2024-01-30T04:26:42;23.52;;;12.63;;
11743;SDS011;5929;51.906;7.674;2024-01-30T04:29:09;18.73;;;11.93;;
11743;SDS011;5929;51.906;7.674;2024-01-30T04:31:36;20.20;;;12.20;;
11743;SDS011;5929;51.906;7.674;2024-01-30T04:34:02;20.35;;;11.15;;
11743;SDS011;5929;51.906;7.674;2024-01-30T04:36:29;20.70;;;12.32;;
11743;SDS011;5929;51.906;7.674;2024-01-30T04:38:57;20.88;;;11.93;;
11743;SDS011;5929;51.906;7.674;2024-01-30T04:41:24;18.65;;;12.02;;
11743;SDS011;5929;51.906;7.674;2024-01-30T04:43:53;19.77;;;12.88;;
11743;SDS011;5929;51.906;7.674;2024-01-30T04:46:20;19.30;;;12.18;;
11743;SDS011;5929;51.906;7.674;2024-01-30T04:48:47;20.17;;;12.70;;
11743;SDS011;5929;51.906;7.674;2024-01-30T04:51:16;21.38;;;11.52;;
11743;SDS011;5929;51.906;7.674;2024-01-30T04:53:43;20.50;;;13.15;;
11743;SDS011;5929;51.906;7.674;2024-01-30T04:56:11;22.10;;;12.77;;
11743;SDS011;5929;51.906;7.674;2024-01-30T04:58:38;21.08;;;13.30;;
11743;SDS011;5929;51.906;7.674;2024-01-30T05:01:05;19.10;;;12.18;;
11743;SDS011;5929;51.906;7.674;2024-01-30T05:03:32;19.40;;;12.45;;
11743;SDS011;5929;51.906;7.674;2024-01-30T05:06:00;23.08;;;13.15;;
11743;SDS011;5929;51.906;7.674;2024-01-30T05:08:29;23.48;;;12.82;;
11743;SDS011;5929;51.906;7.674;2024-01-30T05:10:56;21.05;;;12.57;;
11743;SDS011;5929;51.906;7.674;2024-01-30T05:13:30;24.50;;;13.20;;
11743;SDS011;5929;51.906;7.674;2024-01-30T05:15:56;23.98;;;13.52;;
11743;SDS011;5929;51.906;7.674;2024-01-30T05:18:24;19.60;;;12.93;;
11743;SDS011;5929;51.906;7.674;2024-01-30T05:20:51;22.80;;;13.15;;
11743;SDS011;5929;51.906;7.674;2024-01-30T05:23:17;21.50;;;12.57;;
11743;SDS011;5929;51.906;7.674;2024-01-30T05:25:44;20.52;;;13.07;;
11743;SDS011;5929;51.906;7.674;2024-01-30T05:28:11;20.05;;;12.25;;
11743;SDS011;5929;51.906;7.674;2024-01-30T05:30:39;21.45;;;12.95;;
11743;SDS011;5929;51.906;7.674;2024-01-30T05:33:06;20.63;;;12.55;;
11743;SDS011;5929;51.906;7.674;2024-01-30T05:35:33;19.52;;;11.77;;
11743;SDS011;5929;51.906;7.674;2024-01-30T05:38:00;23.65;;;14.38;;
11743;SDS011;5929;51.906;7.674;2024-01-30T05:40:27;21.10;;;13.27;;
11743;SDS011;5929;51.906;7.674;2024-01-30T05:42:54;21.98;;;12.80;;
11743;SDS011;5929;51.906;7.674;2024-01-30T05:45:21;24.63;;;13.40;;
11743;SDS011;5929;51.906;7.674;2024-01-30T05:47:49;21.75;;;12.63;;
11743;SDS011;5929;51.906;7.674;2024-01-30T05:50:16;22.63;;;13.30;;
11743;SDS011;5929;51.906;7.674;2024-01-30T05:52:43;22.90;;;13.02;;
11743;SDS011;5929;51.906;7.674;2024-01-30T05:55:10;19.80;;;12.88;;
11743;SDS011;5929;51.906;7.674;2024-01-30T05:57:37;21.85;;;12.45;;
11743;SDS011;5929;51.906;7.674;2024-01-30T06:00:04;23.23;;;13.75;;
11743;SDS011;5929;51.906;7.674;2024-01-30T06:02:32;21.85;;;13.77;;
11743;SDS011;5929;51.906;7.674;2024-01-30T06:05:01;22.20;;;12.75;;
11743;SDS011;5929;51.906;7.674;2024-01-30T06:07:28;24.15;;;12.48;;
11743;SDS011;5929;51.906;7.674;2024-01-30T06:09:54;22.33;;;13.00;;
11743;SDS011;5929;51.906;7.674;2024-01-30T06:12:21;20.08;;;12.55;;
11743;SDS011;5929;51.906;7.674;2024-01-30T06:14:48;21.58;;;12.90;;
11743;SDS011;5929;51.906;7.674;2024-01-30T06:17:15;20.17;;;12.43;;
11743;SDS011;5929;51.906;7.674;2024-01-30T06:19:42;22.30;;;12.55;;
11743;SDS011;5929;51.906;7.674;2024-01-30T06:22:10;19.38;;;12.85;;
11743;SDS011;5929;51.906;7.674;2024-01-30T06:24:37;20.70;;;12.52;;
11743;SDS011;5929;51.906;7.674;2024-01-30T06:27:04;21.70;;;12.50;;
11743;SDS011;5929;51.906;7.674;2024-01-30T06:29:30;20.52;;;12.55;;
11743;SDS011;5929;51.906;7.674;2024-01-30T06:31:57;24.15;;;12.70;;
11743;SDS011;5929;51.906;7.674;2024-01-30T06:34:24;22.52;;;12.75;;
11743;SDS011;5929;51.906;7.674;2024-01-30T06:36:52;20.08;;;12.52;;
11743;SDS011;5929;51.906;7.674;2024-01-30T06:39:20;20.17;;;12.88;;
11743;SDS011;5929;51.906;7.674;2024-01-30T06:41:47;21.00;;;12.65;;
11743;SDS011;5929;51.906;7.674;2024-01-30T06:44:14;21.75;;;12.45;;
11743;SDS011;5929;51.906;7.674;2024-01-30T06:46:41;20.77;;;12.07;;
11743;SDS011;5929;51.906;7.674;2024-01-30T06:49:08;23.45;;;12.32;;
11743;SDS011;5929;51.906;7.674;2024-01-30T06:51:34;21.45;;;12.32;;
11743;SDS011;5929;51.906;7.674;2024-01-30T06:54:01;19.30;;;12.30;;
11743;SDS011;5929;51.906;7.674;2024-01-30T06:56:32;19.35;;;11.40;;
11743;SDS011;5929;51.906;7.674;2024-01-30T06:58:59;20.13;;;11.57;;
11743;SDS011;5929;51.906;7.674;2024-01-30T07:01:27;19.05;;;11.63;;
11743;SDS011;5929;51.906;7.674;2024-01-30T07:03:55;19.48;;;11.10;;
11743;SDS011;5929;51.906;7.674;2024-01-30T07:06:24;19.50;;;10.98;;
11743;SDS011;5929;51.906;7.674;2024-01-30T07:08:50;17.17;;;11.25;;
11743;SDS011;5929;51.906;7.674;2024-01-30T07:11:18;18.75;;;11.68;;
11743;SDS011;5929;51.906;7.674;2024-01-30T07:13:48;17.48;;;11.23;;
11743;SDS011;5929;51.906;7.674;2024-01-30T07:16:16;18.88;;;11.52;;
11743;SDS011;5929;51.906;7.674;2024-01-30T07:18:43;18.10;;;10.95;;
11743;SDS011;5929;51.906;7.674;2024-01-30T07:21:10;21.35;;;11.75;;
11743;SDS011;5929;51.906;7.674;2024-01-30T07:23:37;19.77;;;11.30;;
11743;SDS011;5929;51.906;7.674;2024-01-30T07:26:04;18.92;;;11.80;;
11743;SDS011;5929;51.906;7.674;2024-01-30T07:28:31;20.00;;;11.40;;
11743;SDS011;5929;51.906;7.674;2024-01-30T07:31:00;18.73;;;11.30;;
11743;SDS011;5929;51.906;7.674;2024-01-30T07:33:27;18.23;;;11.55;;
11743;SDS011;5929;51.906;7.674;2024-01-30T07:35:54;18.63;;;11.27;;
11743;SDS011;5929;51.906;7.674;2024-01-30T07:38:21;19.50;;;10.70;;
11743;SDS011;5929;51.906;7.674;2024-01-30T07:40:47;18.10;;;12.23;;
11743;SDS011;5929;51.906;7.674;2024-01-30T07:43:15;20.73;;;10.65;;
11743;SDS011;5929;51.906;7.674;2024-01-30T07:45:42;19.50;;;12.73;;
11743;SDS011;5929;51.906;7.674;2024-01-30T07:48:10;20.27;;;11.90;;
11743;SDS011;5929;51.906;7.674;2024-01-30T07:50:37;17.42;;;11.65;;
11743;SDS011;5929;51.906;7.674;2024-01-30T07:53:04;21.98;;;12.57;;
11743;SDS011;5929;51.906;7.674;2024-01-30T07:55:30;23.88;;;12.45;;
11743;SDS011;5929;51.906;7.674;2024-01-30T07:57:57;20.20;;;11.52;;
11743;SDS011;5929;51.906;7.674;2024-01-30T08:00:25;17.20;;;10.82;;
11743;SDS011;5929;51.906;7.674;2024-01-30T08:02:54;17.58;;;11.40;;
11743;SDS011;5929;51.906;7.674;2024-01-30T08:05:22;18.40;;;10.13;;
11743;SDS011;5929;51.906;7.674;2024-01-30T08:07:49;16.25;;;10.93;;
11743;SDS011;5929;51.906;7.674;2024-01-30T08:10:16;17.83;;;10.25;;
11743;SDS011;5929;51.906;7.674;2024-01-30T08:12:44;14.80;;;9.60;;
11743;SDS011;5929;51.906;7.674;2024-01-30T08:15:11;15.52;;;9.35;;
11743;SDS011;5929;51.906;7.674;2024-01-30T08:17:38;14.35;;;9.07;;
11743;SDS011;5929;51.906;7.674;2024-01-30T08:20:06;13.13;;;8.55;;
11743;SDS011;5929;51.906;7.674;2024-01-30T08:22:37;16.08;;;8.88;;
11743;SDS011;5929;51.906;7.674;2024-01-30T08:25:05;21.63;;;9.57;;
11743;SDS011;5929;51.906;7.674;2024-01-30T08:27:32;14.55;;;8.18;;
11743;SDS011;5929;51.906;7.674;2024-01-30T08:30:00;14.27;;;9.07;;
11743;SDS011;5929;51.906;7.674;2024-01-30T08:32:27;13.85;;;8.30;;
11743;SDS011;5929;51.906;7.674;2024-01-30T08:34:54;14.45;;;8.77;;
11743;SDS011;5929;51.906;7.674;2024-01-30T08:37:21;14.38;;;8.85;;
11743;SDS011;5929;51.906;7.674;2024-01-30T08:39:49;17.40;;;8.45;;
11743;SDS011;5929;51.906;7.674;2024-01-30T08:42:18;12.85;;;7.90;;
11743;SDS011;5929;51.906;7.674;2024-01-30T08:44:47;14.05;;;8.25;;
11743;SDS011;5929;51.906;7.674;2024-01-30T08:47:16;15.27;;;8.48;;
11743;SDS011;5929;51.906;7.674;2024-01-30T08:49:43;15.27;;;9.07;;
11743;SDS011;5929;51.906;7.674;2024-01-30T08:52:10;15.32;;;8.30;;
11743;SDS011;5929;51.906;7.674;2024-01-30T08:54:37;14.48;;;9.10;;
11743;SDS011;5929;51.906;7.674;2024-01-30T08:57:05;12.15;;;8.20;;
11743;SDS011;5929;51.906;7.674;2024-01-30T08:59:32;13.13;;;8.15;;
11743;SDS011;5929;51.906;7.674;2024-01-30T09:01:59;14.40;;;7.88;;
11743;SDS011;5929;51.906;7.674;2024-01-30T09:04:27;12.95;;;8.68;;
11743;SDS011;5929;51.906;7.674;2024-01-30T09:06:53;17.00;;;8.57;;
11743;SDS011;5929;51.906;7.674;2024-01-30T09:09:20;11.55;;;7.63;;
11743;SDS011;5929;51.906;7.674;2024-01-30T09:11:47;15.35;;;8.18;;
11743;SDS011;5929;51.906;7.674;2024-01-30T09:14:15;12.52;;;7.88;;
11743;SDS011;5929;51.906;7.674;2024-01-30T09:16:42;12.38;;;7.72;;
11743;SDS011;5929;51.906;7.674;2024-01-30T09:19:09;10.10;;;7.13;;
11743;SDS011;5929;51.906;7.674;2024-01-30T09:21:36;11.68;;;7.85;;
11743;SDS011;5929;51.906;7.674;2024-01-30T09:24:03;12.50;;;7.35;;
11743;SDS011;5929;51.906;7.674;2024-01-30T09:26:30;14.90;;;8.02;;
11743;SDS011;5929;51.906;7.674;2024-01-30T09:28:57;17.00;;;8.57;;
11743;SDS011;5929;51.906;7.674;2024-01-30T09:31:25;17.60;;;7.25;;
11743;SDS011;5929;51.906;7.674;2024-01-30T09:33:52;12.20;;;6.40;;
11743;SDS011;5929;51.906;7.674;2024-01-30T09:36:19;11.02;;;7.40;;
11743;SDS011;5929;51.906;7.674;2024-01-30T09:38:46;17.42;;;7.93;;
11743;SDS011;5929;51.906;7.674;2024-01-30T09:41:15;10.07;;;6.38;;
11743;SDS011;5929;51.906;7.674;2024-01-30T09:43:42;11.32;;;6.95;;
11743;SDS011;5929;51.906;7.674;2024-01-30T09:46:14;14.02;;;7.22;;
11743;SDS011;5929;51.906;7.674;2024-01-30T09:48:44;13.00;;;7.15;;
11743;SDS011;5929;51.906;7.674;2024-01-30T09:51:13;11.70;;;6.97;;
11743;SDS011;5929;51.906;7.674;2024-01-30T09:53:41;12.45;;;6.80;;
11743;SDS011;5929;51.906;7.674;2024-01-30T09:56:09;11.30;;;6.95;;
11743;SDS011;5929;51.906;7.674;2024-01-30T09:58:38;13.15;;;6.85;;
11743;SDS011;5929;51.906;7.674;2024-01-30T10:01:05;12.65;;;6.85;;
11743;SDS011;5929;51.906;7.674;2024-01-30T10:03:32;12.13;;;7.00;;
11743;SDS011;5929;51.906;7.674;2024-01-30T10:06:00;10.93;;;6.60;;
11743;SDS011;5929;51.906;7.674;2024-01-30T10:08:27;12.88;;;6.78;;
11743;SDS011;5929;51.906;7.674;2024-01-30T10:10:54;11.15;;;6.70;;
11743;SDS011;5929;51.906;7.674;2024-01-30T10:13:21;13.00;;;6.90;;
11743;SDS011;5929;51.906;7.674;2024-01-30T10:15:48;11.20;;;6.90;;
11743;SDS011;5929;51.906;7.674;2024-01-30T10:18:16;12.13;;;7.13;;
11743;SDS011;5929;51.906;7.674;2024-01-30T10:20:43;11.20;;;6.60;;
11743;SDS011;5929;51.906;7.674;2024-01-30T10:23:11;12.65;;;7.05;;
11743;SDS011;5929;51.906;7.674;2024-01-30T10:25:38;13.38;;;6.60;;
11743;SDS011;5929;51.906;7.674;2024-01-30T10:28:05;11.70;;;5.93;;
11743;SDS011;5929;51.906;7.674;2024-01-30T10:30:32;10.10;;;6.80;;
11743;SDS011;5929;51.906;7.674;2024-01-30T10:32:59;12.50;;;6.93;;
11743;SDS011;5929;51.906;7.674;2024-01-30T10:35:25;13.00;;;6.10;;
11743;SDS011;5929;51.906;7.674;2024-01-30T10:37:52;15.57;;;6.85;;
11743;SDS011;5929;51.906;7.674;2024-01-30T10:40:25;10.90;;;6.45;;
11743;SDS011;5929;51.906;7.674;2024-01-30T10:42:54;14.77;;;6.40;;
11743;SDS011;5929;51.906;7.674;2024-01-30T10:45:22;10.45;;;6.22;;
11743;SDS011;5929;51.906;7.674;2024-01-30T10:47:53;11.50;;;6.07;;
11743;SDS011;5929;51.906;7.674;2024-01-30T10:50:23;11.35;;;6.57;;
11743;SDS011;5929;51.906;7.674;2024-01-30T10:52:51;11.07;;;6.65;;
11743;SDS011;5929;51.906;7.674;2024-01-30T10:55:19;11.07;;;5.93;;
11743;SDS011;5929;51.906;7.674;2024-01-30T10:57:50;11.20;;;6.40;;
11743;SDS011;5929;51.906;7.674;2024-01-30T11:00:17;11.05;;;6.43;;
11743;SDS011;5929;51.906;7.674;2024-01-30T11:02:48;10.75;;;6.05;;
11743;SDS011;5929;51.906;7.674;2024-01-30T11:05:22;12.10;;;6.90;;
11743;SDS011;5929;51.906;7.674;2024-01-30T11:07:53;10.52;;;6.40;;
11743;SDS011;5929;51.906;7.674;2024-01-30T11:10:20;12.30;;;5.97;;
11743;SDS011;5929;51.906;7.674;2024-01-30T11:12:47;12.50;;;6.50;;
11743;SDS011;5929;51.906;7.674;2024-01-30T11:15:17;9.48;;;5.95;;
11743;SDS011;5929;51.906;7.674;2024-01-30T11:17:45;12.30;;;5.93;;
11743;SDS011;5929;51.906;7.674;2024-01-30T11:20:16;15.20;;;6.40;;
11743;SDS011;5929;51.906;7.674;2024-01-30T11:22:46;11.00;;;6.07;;
11743;SDS011;5929;51.906;7.674;2024-01-30T11:25:14;11.23;;;5.55;;
11743;SDS011;5929;51.906;7.674;2024-01-30T11:27:42;10.80;;;5.97;;
11743;SDS011;5929;51.906;7.674;2024-01-30T11:30:09;8.13;;;5.32;;
11743;SDS011;5929;51.906;7.674;2024-01-30T11:32:40;8.65;;;5.10;;
11743;SDS011;5929;51.906;7.674;2024-01-30T11:35:07;8.25;;;4.95;;
11743;SDS011;5929;51.906;7.674;2024-01-30T11:37:37;8.93;;;5.30;;
11743;SDS011;5929;51.906;7.674;2024-01-30T11:40:05;10.50;;;5.32;;
11743;SDS011;5929;51.906;7.674;2024-01-30T11:42:33;11.88;;;5.90;;
11743;SDS011;5929;51.906;7.674;2024-01-30T11:45:05;9.63;;;5.68;;
11743;SDS011;5929;51.906;7.674;2024-01-30T11:47:34;13.57;;;6.78;;
11743;SDS011;5929;51.906;7.674;2024-01-30T11:50:03;9.45;;;6.07;;
11743;SDS011;5929;51.906;7.674;2024-01-30T11:52:31;11.57;;;5.93;;
11743;SDS011;5929;51.906;7.674;2024-01-30T11:54:59;14.48;;;5.78;;
11743;SDS011;5929;51.906;7.674;2024-01-30T11:57:26;14.13;;;6.00;;
11743;SDS011;5929;51.906;7.674;2024-01-30T11:59:53;10.00;;;6.00;;
11743;SDS011;5929;51.906;7.674;2024-01-30T12:02:20;13.90;;;6.30;;
11743;SDS011;5929;51.906;7.674;2024-01-30T12:04:47;10.63;;;5.30;;
11743;SDS011;5929;51.906;7.674;2024-01-30T12:07:15;10.32;;;5.68;;
11743;SDS011;5929;51.906;7.674;2024-01-30T12:09:42;13.13;;;6.68;;
11743;SDS011;5929;51.906;7.674;2024-01-30T12:12:17;11.57;;;5.65;;
11743;SDS011;5929;51.906;7.674;2024-01-30T12:14:46;13.07;;;5.88;;
11743;SDS011;5929;51.906;7.674;2024-01-30T12:17:22;9.25;;;5.78;;
11743;SDS011;5929;51.906;7.674;2024-01-30T12:19:49;14.60;;;5.50;;
11743;SDS011;5929;51.906;7.674;2024-01-30T12:22:21;11.50;;;5.95;;
11743;SDS011;5929;51.906;7.674;2024-01-30T12:24:47;16.00;;;5.78;;
11743;SDS011;5929;51.906;7.674;2024-01-30T12:27:15;16.85;;;5.93;;
11743;SDS011;5929;51.906;7.674;2024-01-30T12:29:41;10.80;;;5.72;;
11743;SDS011;5929;51.906;7.674;2024-01-30T12:32:09;14.85;;;6.05;;
11743;SDS011;5929;51.906;7.674;2024-01-30T12:34:41;9.68;;;5.47;;
11743;SDS011;5929;51.906;7.674;2024-01-30T12:37:08;12.55;;;5.45;;
11743;SDS011;5929;51.906;7.674;2024-01-30T12:39:38;14.18;;;6.22;;
11743;SDS011;5929;51.906;7.674;2024-01-30T12:42:04;14.95;;;6.85;;
11743;SDS011;5929;51.906;7.674;2024-01-30T12:44:31;16.50;;;6.60;;
11743;SDS011;5929;51.906;7.674;2024-01-30T12:46:58;12.30;;;6.45;;
11743;SDS011;5929;51.906;7.674;2024-01-30T12:49:28;13.30;;;6.38;;
11743;SDS011;5929;51.906;7.674;2024-01-30T12:51:55;10.43;;;6.18;;
11743;SDS011;5929;51.906;7.674;2024-01-30T12:54:22;12.70;;;6.38;;
11743;SDS011;5929;51.906;7.674;2024-01-30T12:56:50;14.50;;;7.47;;
11743;SDS011;5929;51.906;7.674;2024-01-30T12:59:17;15.13;;;6.38;;
11743;SDS011;5929;51.906;7.674;2024-01-30T13:01:44;13.90;;;6.13;;
11743;SDS011;5929;51.906;7.674;2024-01-30T13:04:11;13.93;;;6.22;;
11743;SDS011;5929;51.906;7.674;2024-01-30T13:06:38;12.18;;;7.10;;
11743;SDS011;5929;51.906;7.674;2024-01-30T13:09:05;13.18;;;7.15;;
11743;SDS011;5929;51.906;7.674;2024-01-30T13:11:32;11.23;;;6.38;;
11743;SDS011;5929;51.906;7.674;2024-01-30T13:14:00;13.45;;;6.57;;
11743;SDS011;5929;51.906;7.674;2024-01-30T13:16:28;13.73;;;6.72;;
11743;SDS011;5929;51.906;7.674;2024-01-30T13:18:55;9.75;;;5.55;;
11743;SDS011;5929;51.906;7.674;2024-01-30T13:21:22;16.52;;;7.50;;
11743;SDS011;5929;51.906;7.674;2024-01-30T13:23:49;14.30;;;7.22;;
11743;SDS011;5929;51.906;7.674;2024-01-30T13:26:18;12.60;;;6.25;;
11743;SDS011;5929;51.906;7.674;2024-01-30T13:28:45;14.35;;;7.18;;
11743;SDS011;5929;51.906;7.674;2024-01-30T13:31:13;15.23;;;6.70;;
11743;SDS011;5929;51.906;7.674;2024-01-30T13:33:40;12.25;;;6.45;;
11743;SDS011;5929;51.906;7.674;2024-01-30T13:36:07;11.32;;;7.03;;
11743;SDS011;5929;51.906;7.674;2024-01-30T13:38:35;12.32;;;6.63;;
11743;SDS011;5929;51.906;7.674;2024-01-30T13:41:02;13.02;;;6.88;;
11743;SDS011;5929;51.906;7.674;2024-01-30T13:43:29;13.23;;;7.43;;
11743;SDS011;5929;51.906;7.674;2024-01-30T13:45:56;15.27;;;6.97;;
11743;SDS011;5929;51.906;7.674;2024-01-30T13:48:24;15.45;;;7.20;;
11743;SDS011;5929;51.906;7.674;2024-01-30T13:50:51;12.40;;;6.55;;
11743;SDS011;5929;51.906;7.674;2024-01-30T13:53:19;14.18;;;7.38;;
11743;SDS011;5929;51.906;7.674;2024-01-30T13:55:46;15.82;;;7.57;;
11743;SDS011;5929;51.906;7.674;2024-01-30T13:58:13;15.95;;;7.53;;
11743;SDS011;5929;51.906;7.674;2024-01-30T14:00:40;17.48;;;7.25;;
11743;SDS011;5929;51.906;7.674;2024-01-30T14:03:07;18.13;;;7.00;;
11743;SDS011;5929;51.906;7.674;2024-01-30T14:05:35;11.60;;;6.57;;
11743;SDS011;5929;51.906;7.674;2024-01-30T14:08:02;11.65;;;6.65;;
11743;SDS011;5929;51.906;7.674;2024-01-30T14:10:30;13.00;;;6.68;;
11743;SDS011;5929;51.906;7.674;2024-01-30T14:12:57;9.55;;;6.00;;
11743;SDS011;5929;51.906;7.674;2024-01-30T14:15:24;13.77;;;6.75;;
11743;SDS011;5929;51.906;7.674;2024-01-30T14:17:51;12.60;;;6.82;;
11743;SDS011;5929;51.906;7.674;2024-01-30T14:20:18;11.35;;;6.78;;
11743;SDS011;5929;51.906;7.674;2024-01-30T14:22:46;12.00;;;6.90;;
11743;SDS011;5929;51.906;7.674;2024-01-30T14:25:13;11.75;;;7.28;;
11743;SDS011;5929;51.906;7.674;2024-01-30T14:27:40;15.73;;;7.35;;
11743;SDS011;5929;51.906;7.674;2024-01-30T14:30:08;14.30;;;7.00;;
11743;SDS011;5929;51.906;7.674;2024-01-30T14:32:37;12.63;;;7.45;;
11743;SDS011;5929;51.906;7.674;2024-01-30T14:35:05;12.00;;;6.88;;
11743;SDS011;5929;51.906;7.674;2024-01-30T14:37:33;14.10;;;7.72;;
11743;SDS011;5929;51.906;7.674;2024-01-30T14:40:02;11.93;;;7.30;;
11743;SDS011;5929;51.906;7.674;2024-01-30T14:42:30;12.73;;;6.93;;